Terminal Aerodrome Forecast
Issued by NWS Mobile, AL

Home | Current Version | Previous Version | Text Only | Print | Product List | Glossary On
Versions: 1 2 3 4 5 6 7 8 9 10 11 12 13 14 15 16 17 18 19 20 21 22 23 24 25 26 27 28 29 30 31 32 33 34
784
FTUS44 KMOB 010521
TAFMOB
TAF
KMOB 010521Z 0106/0206 15021G35KT P6SM -RA VCTS SCT010CB BKN045
      OVC060
      TEMPO 0106/0110 VRB15G35KT 1SM +TSRA BKN015CB
     FM011000 30012KT P6SM -RA SCT015 BKN050
     FM011200 31010KT P6SM SCT250=

USA.gov is the U.S. government's official web portal to all federal, state and local government web resources and services.